createdAt,value
2022-10-13T00:01:09.401Z,95.27
2022-10-13T00:03:38.483Z,95.27
2022-10-13T00:06:08.405Z,95.38
2022-10-13T00:08:37.222Z,95.38
2022-10-13T00:11:13.278Z,95.37
2022-10-13T00:13:42.305Z,95.49
2022-10-13T00:16:11.123Z,95.47
2022-10-13T00:18:39.605Z,95.21
2022-10-13T00:21:09.232Z,95.30
2022-10-13T00:23:37.861Z,95.07
2022-10-13T00:26:08.535Z,95.09
2022-10-13T00:28:38.277Z,94.55
2022-10-13T00:31:16.125Z,94.37
2022-10-13T00:33:45.365Z,93.87
2022-10-13T00:36:14.332Z,94.57
2022-10-13T00:38:42.821Z,94.41
2022-10-13T00:41:11.122Z,94.50
2022-10-13T00:43:58.717Z,94.61
2022-10-13T00:46:28.397Z,94.34
2022-10-13T00:49:02.441Z,94.86
2022-10-13T00:51:34.449Z,94.54
2022-10-13T00:54:04.448Z,94.32
2022-10-13T00:56:33.019Z,94.68
2022-10-13T00:59:04.253Z,95.19
2022-10-13T01:01:33.050Z,94.92
2022-10-13T01:04:01.330Z,94.98
2022-10-13T01:06:29.380Z,94.81
2022-10-13T01:08:57.369Z,95.00
2022-10-13T01:11:48.948Z,94.88
2022-10-13T01:14:29.239Z,94.95
2022-10-13T01:17:06.566Z,94.93
2022-10-13T01:20:05.732Z,94.96
2022-10-13T01:22:46.398Z,94.94
2022-10-13T01:25:28.965Z,95.12
2022-10-13T01:28:24.011Z,94.99
2022-10-13T01:30:59.710Z,94.94
2022-10-13T01:33:35.139Z,94.96
2022-10-13T01:36:14.506Z,94.90
2022-10-13T01:38:48.978Z,94.70
2022-10-13T01:41:23.687Z,94.56
2022-10-13T01:43:57.552Z,93.75
2022-10-13T01:46:30.070Z,92.28
2022-10-13T01:49:01.794Z,91.98
2022-10-13T01:51:32.462Z,91.88
2022-10-13T01:54:00.809Z,91.88
2022-10-13T01:56:28.812Z,92.09
2022-10-13T01:59:00.728Z,92.14
2022-10-13T02:01:47.417Z,91.75
2022-10-13T02:04:30.983Z,90.84
2022-10-13T02:07:05.135Z,90.57
2022-10-13T02:09:42.389Z,90.34
2022-10-13T02:12:16.338Z,90.29
2022-10-13T02:14:48.005Z,90.41
2022-10-13T02:17:18.200Z,90.89
2022-10-13T02:19:46.685Z,91.72
2022-10-13T02:22:17.426Z,91.14
2022-10-13T02:24:45.764Z,91.73
2022-10-13T02:27:14.813Z,91.38
2022-10-13T02:29:54.243Z,91.68
2022-10-13T02:32:23.936Z,91.64
2022-10-13T02:34:53.315Z,92.04
2022-10-13T02:37:21.498Z,92.06
2022-10-13T02:39:49.974Z,92.07
2022-10-13T02:42:18.726Z,92.55
2022-10-13T02:44:47.902Z,92.77
2022-10-13T02:47:16.091Z,92.84
2022-10-13T02:49:45.456Z,92.82
2022-10-13T02:52:13.513Z,92.96
2022-10-13T02:54:43.339Z,93.00
2022-10-13T02:57:11.391Z,93.04
2022-10-13T02:59:39.580Z,93.30
2022-10-13T03:02:07.656Z,92.98
2022-10-13T03:04:36.439Z,93.23
2022-10-13T03:07:06.106Z,92.97
2022-10-13T03:09:34.404Z,92.96
2022-10-13T03:12:02.836Z,92.79
2022-10-13T03:14:30.952Z,92.97
2022-10-13T03:16:59.018Z,92.83
2022-10-13T03:19:27.146Z,92.64
2022-10-13T03:21:55.234Z,92.32
2022-10-13T03:24:24.615Z,92.46
2022-10-13T03:26:52.771Z,92.19
2022-10-13T03:29:23.029Z,91.92
2022-10-13T03:31:51.096Z,90.82
2022-10-13T03:34:20.226Z,89.97
2022-10-13T03:36:48.449Z,89.45
2022-10-13T03:39:16.612Z,89.97
2022-10-13T03:41:46.226Z,91.10
2022-10-13T03:44:14.654Z,91.65
2022-10-13T03:46:42.751Z,91.54
2022-10-13T03:49:12.111Z,90.84
2022-10-13T03:51:40.459Z,90.90
2022-10-13T03:54:08.496Z,91.83
2022-10-13T03:56:37.323Z,91.96
2022-10-13T03:59:07.281Z,92.49
2022-10-13T04:01:35.658Z,92.32
2022-10-13T04:04:03.995Z,92.43
2022-10-13T04:06:32.542Z,92.22
2022-10-13T04:09:01.624Z,92.06
2022-10-13T04:11:29.555Z,92.17
2022-10-13T04:13:58.767Z,92.12
2022-10-13T04:16:30.421Z,92.24
2022-10-13T04:19:00.163Z,92.37
2022-10-13T04:21:29.393Z,92.17
2022-10-13T04:23:58.189Z,92.31
2022-10-13T04:26:28.696Z,92.32
2022-10-13T04:28:58.647Z,92.26
2022-10-13T04:31:30.444Z,92.16
2022-10-13T04:33:59.418Z,92.36
2022-10-13T04:36:28.103Z,92.11
2022-10-13T04:38:56.232Z,92.44
2022-10-13T04:41:24.421Z,92.34
2022-10-13T04:43:53.557Z,92.27
2022-10-13T04:46:23.638Z,92.23
2022-10-13T04:48:54.859Z,92.54
2022-10-13T04:51:26.752Z,92.58
2022-10-13T04:53:56.246Z,93.01
2022-10-13T04:56:24.475Z,92.73
2022-10-13T04:58:52.568Z,92.18
2022-10-13T05:01:22.679Z,92.28
2022-10-13T05:03:57.893Z,92.36
2022-10-13T05:06:28.497Z,92.42
2022-10-13T05:08:57.347Z,92.07
2022-10-13T05:11:27.598Z,92.41
2022-10-13T05:13:56.273Z,92.20
2022-10-13T05:16:25.321Z,92.58
2022-10-13T05:18:56.256Z,92.57
2022-10-13T05:21:26.544Z,92.58
2022-10-13T05:23:55.771Z,92.52
2022-10-13T05:26:28.540Z,92.67
2022-10-13T05:28:56.844Z,92.63
2022-10-13T05:31:28.960Z,92.63
2022-10-13T05:33:58.832Z,92.36
2022-10-13T05:36:30.125Z,92.17
2022-10-13T05:39:00.071Z,92.21
2022-10-13T05:41:29.570Z,91.92
2022-10-13T05:44:01.639Z,91.81
2022-10-13T05:46:29.914Z,92.17
2022-10-13T05:48:59.598Z,92.07
2022-10-13T05:51:31.848Z,92.42
2022-10-13T05:54:04.977Z,92.09
2022-10-13T05:56:38.133Z,92.28
2022-10-13T05:59:09.458Z,92.46
2022-10-13T06:01:41.542Z,91.93
2022-10-13T06:04:15.593Z,91.76
2022-10-13T06:06:46.796Z,92.04
2022-10-13T06:09:14.834Z,91.69
2022-10-13T06:11:43.261Z,91.76
2022-10-13T06:14:11.628Z,91.29
2022-10-13T06:16:39.636Z,90.66
2022-10-13T06:19:07.828Z,89.30
2022-10-13T06:21:37.259Z,89.63
2022-10-13T06:24:05.866Z,89.72
2022-10-13T06:26:33.887Z,90.33
2022-10-13T06:29:02.137Z,90.61
2022-10-13T06:31:30.428Z,90.60
2022-10-13T06:33:59.437Z,90.54
2022-10-13T06:36:27.838Z,90.30
2022-10-13T06:38:57.383Z,90.58
2022-10-13T06:41:25.833Z,89.72
2022-10-13T06:43:53.837Z,89.51
2022-10-13T06:46:22.524Z,88.60
2022-10-13T06:48:51.643Z,88.43
2022-10-13T06:51:21.428Z,88.76
2022-10-13T06:53:50.941Z,88.08
2022-10-13T06:56:24.695Z,85.66
2022-10-13T06:58:52.811Z,86.48
2022-10-13T07:01:21.608Z,88.73
2022-10-13T07:03:50.269Z,88.70
2022-10-13T07:06:21.214Z,87.94
2022-10-13T07:08:53.027Z,88.29
2022-10-13T07:11:24.188Z,88.45
2022-10-13T07:13:57.605Z,87.72
2022-10-13T07:16:25.783Z,87.74
2022-10-13T07:18:53.900Z,88.12
2022-10-13T07:21:23.017Z,88.16
2022-10-13T07:23:52.123Z,87.67
2022-10-13T07:26:20.610Z,87.13
2022-10-13T07:28:50.092Z,85.01
2022-10-13T07:31:20.405Z,85.15
2022-10-13T07:33:50.943Z,83.50
2022-10-13T07:36:19.876Z,83.28
2022-10-13T07:38:48.258Z,83.55
2022-10-13T07:41:16.833Z,83.31
2022-10-13T07:43:45.307Z,82.11
2022-10-13T07:46:15.159Z,80.54
2022-10-13T07:48:43.346Z,79.93
2022-10-13T07:51:13.707Z,79.38
2022-10-13T07:53:42.871Z,79.66
2022-10-13T07:56:13.366Z,79.87
2022-10-13T07:58:44.492Z,78.88
2022-10-13T08:01:14.445Z,79.35
2022-10-13T08:03:45.751Z,79.69
2022-10-13T08:06:20.781Z,80.18
2022-10-13T08:08:52.260Z,79.98
2022-10-13T08:11:20.419Z,79.98
2022-10-13T08:13:49.888Z,79.99
2022-10-13T08:16:23.683Z,80.65
2022-10-13T08:18:51.828Z,80.80
2022-10-13T08:24:13.535Z,79.59
2022-10-13T08:26:42.527Z,79.13
2022-10-13T08:29:26.524Z,78.78
2022-10-13T08:31:56.276Z,78.67
2022-10-13T08:34:25.097Z,75.88
2022-10-13T08:36:56.217Z,75.79
2022-10-13T08:39:25.560Z,75.51
2022-10-13T08:41:55.292Z,75.47
2022-10-13T08:45:06.283Z,75.56
2022-10-13T08:47:39.187Z,75.22
2022-10-13T08:50:14.390Z,74.73
2022-10-13T08:52:48.278Z,74.26
2022-10-13T08:55:25.119Z,73.45
2022-10-13T08:57:53.674Z,73.92
2022-10-13T09:00:27.845Z,73.62
2022-10-13T09:03:18.617Z,74.50
2022-10-13T09:05:59.422Z,74.93
2022-10-13T09:08:33.767Z,74.77
2022-10-13T09:11:03.592Z,74.79
2022-10-13T09:13:31.863Z,72.87
2022-10-13T09:15:59.847Z,71.66
2022-10-13T09:18:32.675Z,73.23
2022-10-13T09:21:18.157Z,72.89
2022-10-13T09:23:46.463Z,73.24
2022-10-13T09:26:21.127Z,72.26
2022-10-13T09:28:49.887Z,71.76
2022-10-13T09:31:22.669Z,71.04
2022-10-13T09:33:59.819Z,70.05
2022-10-13T09:36:28.696Z,68.10
2022-10-13T09:39:09.534Z,68.78
2022-10-13T09:41:40.252Z,68.29
2022-10-13T09:44:14.432Z,68.24
2022-10-13T09:46:49.914Z,67.01
2022-10-13T09:49:34.699Z,67.04
2022-10-13T09:52:16.080Z,66.15
2022-10-13T09:54:50.081Z,65.57
2022-10-13T09:57:32.675Z,66.63
2022-10-13T10:00:08.778Z,66.64
2022-10-13T10:02:46.352Z,66.35
2022-10-13T10:05:24.767Z,64.99
2022-10-13T10:08:03.627Z,68.53
2022-10-13T10:10:37.050Z,69.12
2022-10-13T10:13:11.443Z,66.51
2022-10-13T10:15:51.678Z,63.94
2022-10-13T10:18:26.404Z,63.31
2022-10-13T10:21:09.906Z,61.81
2022-10-13T10:23:49.895Z,61.34
2022-10-13T10:26:24.264Z,62.06
2022-10-13T10:29:08.975Z,61.92
2022-10-13T10:31:54.199Z,62.18
2022-10-13T10:34:31.964Z,61.07
2022-10-13T10:37:13.996Z,64.15
2022-10-13T10:39:48.903Z,64.89
2022-10-13T10:42:51.145Z,64.28
2022-10-13T10:45:24.343Z,63.51
2022-10-13T10:47:57.227Z,63.54
2022-10-13T10:50:29.679Z,61.55
2022-10-13T10:53:03.787Z,60.61
2022-10-13T10:55:36.605Z,63.15
2022-10-13T10:58:20.912Z,62.80
2022-10-13T11:00:58.336Z,61.15
2022-10-13T11:03:37.491Z,61.47
2022-10-13T11:06:21.958Z,60.48
2022-10-13T11:08:51.864Z,66.71
2022-10-13T11:11:38.270Z,64.26
2022-10-13T11:14:30.580Z,63.02
2022-10-13T11:17:28.263Z,62.48
2022-10-13T11:19:57.123Z,64.66
2022-10-13T11:22:26.475Z,60.63
2022-10-13T11:25:40.464Z,61.32
2022-10-13T11:28:44.266Z,62.96
2022-10-13T11:31:41.164Z,60.73
2022-10-13T11:34:27.990Z,64.36
2022-10-13T11:36:57.839Z,64.52
2022-10-13T11:39:53.310Z,62.11
2022-10-13T11:42:38.202Z,58.62
2022-10-13T11:45:18.974Z,62.08
2022-10-13T11:48:34.791Z,60.74
2022-10-13T11:51:16.514Z,59.57
2022-10-13T11:53:54.691Z,59.19
2022-10-13T11:56:24.089Z,59.56
2022-10-13T11:58:53.566Z,59.62
2022-10-13T12:01:21.590Z,57.71
2022-10-13T12:03:49.737Z,58.10
2022-10-13T12:06:34.841Z,57.21
2022-10-13T12:09:05.581Z,59.03
2022-10-13T12:11:37.375Z,59.26
2022-10-13T12:14:20.513Z,63.27
2022-10-13T12:19:29.957Z,58.28
2022-10-13T12:22:00.099Z,61.66
2022-10-13T12:24:30.258Z,60.45
2022-10-13T12:26:59.451Z,60.51
2022-10-13T12:29:36.291Z,60.03
2022-10-13T12:32:18.828Z,62.06
2022-10-13T12:34:47.069Z,61.74
2022-10-13T12:37:26.217Z,59.66
2022-10-13T12:39:55.205Z,59.60
2022-10-13T12:42:29.876Z,62.71
2022-10-13T12:45:01.745Z,60.41
2022-10-13T12:47:50.353Z,58.20
2022-10-13T12:50:36.794Z,58.07
2022-10-13T12:53:12.278Z,60.44
2022-10-13T12:55:52.540Z,60.58
2022-10-13T12:58:24.907Z,60.93
2022-10-13T13:00:59.555Z,61.38
2022-10-13T13:03:30.466Z,62.49
2022-10-13T13:06:23.954Z,65.18
2022-10-13T13:09:09.978Z,60.84
2022-10-13T13:11:39.748Z,61.41
2022-10-13T13:14:37.535Z,62.41
2022-10-13T13:17:12.143Z,59.63
2022-10-13T13:19:41.668Z,57.20
2022-10-13T13:22:13.450Z,57.48
2022-10-13T13:24:41.920Z,55.86
2022-10-13T13:27:18.578Z,57.52
2022-10-13T13:29:47.061Z,57.06
2022-10-13T13:32:20.270Z,59.00
2022-10-13T13:34:49.013Z,59.33
2022-10-13T13:37:30.833Z,60.46
2022-10-13T13:39:59.514Z,63.13
2022-10-13T13:42:29.537Z,62.80
2022-10-13T13:44:57.926Z,63.19
2022-10-13T13:47:29.061Z,63.04
2022-10-13T13:49:57.946Z,64.42
2022-10-13T13:52:26.776Z,63.05
2022-10-13T13:54:56.157Z,63.02
2022-10-13T13:57:24.219Z,62.72
2022-10-13T13:59:52.302Z,62.66
2022-10-13T14:02:22.475Z,62.80
2022-10-13T14:04:53.327Z,63.60
2022-10-13T14:07:21.981Z,63.86
2022-10-13T14:09:53.752Z,64.69
2022-10-13T14:12:22.944Z,64.80
2022-10-13T14:14:51.443Z,63.83
2022-10-13T14:17:23.184Z,62.58
2022-10-13T14:19:52.561Z,62.39
2022-10-13T14:22:21.069Z,61.84
2022-10-13T14:24:49.261Z,63.53
2022-10-13T14:27:17.322Z,63.28
2022-10-13T14:29:45.490Z,64.52
2022-10-13T14:32:13.593Z,65.38
2022-10-13T14:34:41.700Z,63.52
2022-10-13T14:37:11.324Z,63.97
2022-10-13T14:39:39.500Z,65.12
2022-10-13T14:42:07.548Z,64.24
2022-10-13T14:44:35.562Z,64.85
2022-10-13T14:47:03.840Z,65.02
2022-10-13T14:49:31.810Z,66.12
2022-10-13T14:52:00.667Z,66.87
2022-10-13T14:54:30.591Z,66.16
2022-10-13T14:57:05.182Z,67.35
2022-10-13T14:59:33.340Z,67.10
2022-10-13T15:02:01.727Z,67.34
2022-10-13T15:04:29.831Z,67.13
2022-10-13T15:06:58.082Z,66.82
2022-10-13T15:09:38.728Z,67.09
2022-10-13T15:12:17.004Z,67.61
2022-10-13T15:14:45.158Z,67.18
2022-10-13T15:17:13.206Z,67.67
2022-10-13T15:19:41.192Z,66.91
2022-10-13T15:22:10.185Z,67.32
2022-10-13T15:24:38.157Z,68.28
2022-10-13T15:27:06.209Z,68.87
2022-10-13T15:29:36.640Z,68.20
2022-10-13T15:32:09.818Z,68.62
2022-10-13T15:34:39.649Z,68.40
2022-10-13T15:37:07.865Z,67.97
2022-10-13T15:39:35.984Z,68.25
2022-10-13T15:42:04.211Z,68.62
2022-10-13T15:44:50.916Z,68.60
2022-10-13T15:47:21.835Z,68.77
2022-10-13T15:49:49.857Z,69.66
2022-10-13T15:52:18.086Z,69.66
2022-10-13T15:54:46.367Z,70.44
2022-10-13T15:57:14.853Z,71.21
2022-10-13T15:59:43.170Z,71.39
2022-10-13T16:02:11.812Z,70.98
2022-10-13T16:04:41.182Z,71.91
2022-10-13T16:07:09.190Z,72.13
2022-10-13T16:09:37.257Z,72.44
2022-10-13T16:12:05.623Z,72.87
2022-10-13T16:14:34.009Z,73.65
2022-10-13T16:17:02.089Z,73.26
2022-10-13T16:19:30.065Z,73.54
2022-10-13T16:21:59.506Z,73.48
2022-10-13T16:24:27.477Z,73.77
2022-10-13T16:26:55.399Z,74.82
2022-10-13T16:29:25.129Z,74.70
2022-10-13T16:31:53.121Z,75.63
2022-10-13T16:34:21.294Z,75.68
2022-10-13T16:36:51.098Z,75.87
2022-10-13T16:39:20.883Z,76.53
2022-10-13T16:41:48.895Z,76.64
2022-10-13T16:44:16.994Z,77.63
2022-10-13T16:46:45.392Z,78.43
2022-10-13T16:49:13.725Z,80.12
2022-10-13T16:51:43.268Z,81.13
2022-10-13T16:54:11.346Z,80.84
2022-10-13T16:56:40.765Z,80.41
2022-10-13T16:59:08.893Z,79.95
2022-10-13T17:01:37.605Z,80.29
2022-10-13T17:04:06.013Z,81.13
2022-10-13T17:06:37.358Z,82.27
2022-10-13T17:09:06.310Z,82.75
2022-10-13T17:11:37.194Z,82.27
2022-10-13T17:14:07.834Z,83.53
2022-10-13T17:16:36.005Z,83.61
2022-10-13T17:19:05.058Z,83.21
2022-10-13T17:21:37.613Z,82.86
2022-10-13T17:24:08.729Z,82.49
2022-10-13T17:26:37.171Z,82.54
2022-10-13T17:29:07.034Z,84.38
2022-10-13T17:31:35.047Z,84.96
2022-10-13T17:34:03.047Z,84.97
2022-10-13T17:36:34.100Z,85.40
2022-10-13T17:39:10.768Z,86.08
2022-10-13T17:41:41.794Z,86.66
2022-10-13T17:44:11.788Z,86.87
2022-10-13T17:46:40.058Z,86.65
2022-10-13T17:49:10.625Z,86.94
2022-10-13T17:51:39.356Z,87.25
2022-10-13T17:54:11.607Z,87.51
2022-10-13T17:56:42.676Z,87.88
2022-10-13T17:59:12.043Z,85.83
2022-10-13T18:01:42.032Z,85.37
2022-10-13T18:04:13.121Z,83.60
2022-10-13T18:06:43.978Z,82.79
2022-10-13T18:09:14.523Z,82.49
2022-10-13T18:11:50.264Z,85.17
2022-10-13T18:14:21.842Z,84.77
2022-10-13T18:16:50.155Z,84.55
2022-10-13T18:19:18.381Z,84.63
2022-10-13T18:21:46.449Z,86.09
2022-10-13T18:24:14.915Z,86.59
2022-10-13T18:26:43.063Z,86.90
2022-10-13T18:29:13.180Z,87.21
2022-10-13T18:31:43.613Z,87.19
2022-10-13T18:34:15.208Z,87.81
2022-10-13T18:36:47.080Z,87.96
2022-10-13T18:39:17.265Z,88.17
2022-10-13T18:41:48.460Z,88.88
2022-10-13T18:44:17.247Z,88.62
2022-10-13T18:46:50.213Z,88.16
2022-10-13T18:49:20.631Z,88.04
2022-10-13T18:51:51.551Z,88.45
2022-10-13T18:54:20.226Z,88.53
2022-10-13T18:56:48.526Z,88.67
2022-10-13T18:59:17.660Z,88.85
2022-10-13T19:01:47.911Z,88.61
2022-10-13T19:04:16.985Z,88.63
2022-10-13T19:06:46.409Z,88.76
2022-10-13T19:09:17.472Z,89.27
2022-10-13T19:11:46.317Z,88.88
2022-10-13T19:14:20.574Z,89.23
2022-10-13T19:16:50.016Z,89.14
2022-10-13T19:19:18.133Z,89.24
2022-10-13T19:21:46.157Z,89.15
2022-10-13T19:24:14.316Z,89.26
2022-10-13T19:26:42.334Z,88.83
2022-10-13T19:29:13.032Z,89.16
2022-10-13T19:31:43.067Z,88.79
2022-10-13T19:34:14.331Z,88.83
2022-10-13T19:36:45.462Z,89.22
2022-10-13T19:39:16.696Z,89.18
2022-10-13T19:41:46.487Z,89.34
2022-10-13T19:44:15.274Z,89.28
2022-10-13T19:46:45.032Z,89.36
2022-10-13T19:49:18.088Z,89.70
2022-10-13T19:51:46.739Z,89.62
2022-10-13T19:54:15.266Z,89.55
2022-10-13T19:56:48.292Z,89.59
2022-10-13T19:59:17.518Z,89.33
2022-10-13T20:01:45.655Z,89.66
2022-10-13T20:04:18.376Z,89.32
2022-10-13T20:06:48.013Z,89.87
2022-10-13T20:09:17.275Z,89.78
2022-10-13T20:11:46.281Z,89.84
2022-10-13T20:14:14.526Z,89.98
2022-10-13T20:16:43.255Z,89.68
2022-10-13T20:19:13.647Z,90.06
2022-10-13T20:21:44.289Z,89.93
2022-10-13T20:24:13.431Z,89.92
2022-10-13T20:26:41.816Z,90.13
2022-10-13T20:29:10.980Z,89.99
2022-10-13T20:31:39.094Z,90.01
2022-10-13T20:34:07.563Z,89.56
2022-10-13T20:36:38.745Z,90.07
2022-10-13T20:39:09.384Z,89.81
2022-10-13T20:41:37.575Z,90.26
2022-10-13T20:44:05.590Z,90.31
2022-10-13T20:46:35.339Z,90.02
2022-10-13T20:49:12.685Z,90.02
2022-10-13T20:51:41.985Z,89.66
2022-10-13T20:54:12.421Z,89.92
2022-10-13T20:56:40.836Z,89.31
2022-10-13T20:59:11.362Z,89.32
2022-10-13T21:01:40.562Z,89.54
2022-10-13T21:04:08.625Z,89.90
2022-10-13T21:06:37.728Z,88.76
2022-10-13T21:09:06.860Z,88.28
2022-10-13T21:11:37.305Z,86.99
2022-10-13T21:14:07.049Z,86.42
2022-10-13T21:16:35.810Z,86.83
2022-10-13T21:19:08.008Z,88.20
2022-10-13T21:21:36.954Z,89.37
2022-10-13T21:25:04.753Z,100.00
2022-10-13T21:28:33.059Z,100.00
2022-10-13T21:31:08.224Z,100.00
2022-10-13T21:34:35.187Z,100.00
2022-10-13T21:38:00.177Z,100.00
2022-10-13T21:41:26.912Z,100.00
2022-10-13T21:44:54.914Z,100.00
2022-10-13T21:48:22.820Z,100.00
2022-10-13T21:51:49.645Z,100.00
2022-10-13T21:55:16.520Z,100.00
2022-10-13T21:58:43.305Z,100.00
2022-10-13T22:01:36.525Z,100.00
2022-10-13T22:05:03.188Z,100.00
2022-10-13T22:07:32.018Z,89.37
2022-10-13T22:10:13.028Z,89.37
2022-10-13T22:13:40.097Z,100.00
2022-10-13T22:16:57.269Z,100.00
2022-10-13T22:20:23.421Z,100.00
2022-10-13T22:23:38.210Z,89.37
2022-10-13T22:26:08.912Z,89.37
2022-10-13T22:29:05.876Z,89.37
2022-10-13T22:32:21.960Z,100.00
2022-10-13T22:35:48.470Z,100.00
2022-10-13T22:38:17.403Z,0.00
2022-10-13T22:40:45.433Z,100.00
2022-10-13T22:44:12.066Z,100.00
2022-10-13T22:47:39.758Z,100.00
2022-10-13T22:51:07.161Z,100.00
2022-10-13T22:54:34.010Z,100.00
2022-10-13T22:58:00.640Z,100.00
2022-10-13T23:01:27.637Z,100.00
2022-10-13T23:04:56.547Z,100.00
2022-10-13T23:08:23.250Z,100.00
2022-10-13T23:11:49.751Z,100.00
2022-10-13T23:15:18.855Z,100.00
2022-10-13T23:18:45.665Z,100.00
2022-10-13T23:22:00.441Z,89.37
2022-10-13T23:24:29.033Z,95.51
2022-10-13T23:27:00.346Z,95.78
2022-10-13T23:29:28.589Z,95.32
2022-10-13T23:31:56.621Z,95.37
2022-10-13T23:34:24.740Z,95.76
2022-10-13T23:36:54.145Z,95.43
2022-10-13T23:39:22.158Z,95.92
2022-10-13T23:41:50.206Z,95.42
2022-10-13T23:44:20.475Z,95.51
2022-10-13T23:46:48.808Z,95.65
2022-10-13T23:49:17.467Z,95.59
2022-10-13T23:51:46.023Z,95.77
2022-10-13T23:54:15.406Z,95.44
2022-10-13T23:56:43.413Z,95.63
2022-10-13T23:59:11.355Z,95.17
